createdAt,value
2022-08-26T00:00:12.544Z,100345.45
2022-08-26T00:02:43.821Z,100345.31
2022-08-26T00:05:16.126Z,100345.75
2022-08-26T00:07:48.641Z,100340.70
2022-08-26T00:10:21.846Z,100341.53
2022-08-26T00:12:55.595Z,100345.50
2022-08-26T00:15:28.506Z,100345.36
2022-08-26T00:18:00.735Z,100341.28
2022-08-26T00:20:35.175Z,100348.36
2022-08-26T00:23:06.997Z,100349.03
2022-08-26T00:25:42.600Z,100358.14
2022-08-26T00:28:15.142Z,100361.55
2022-08-26T00:30:49.371Z,100350.24
2022-08-26T00:33:23.286Z,100355.37
2022-08-26T00:35:55.383Z,100358.92
2022-08-26T00:38:27.651Z,100354.70
2022-08-26T00:41:01.842Z,100355.70
2022-08-26T00:43:47.271Z,100362.21
2022-08-26T00:46:13.768Z,100358.67
2022-08-26T00:48:49.249Z,100366.18
2022-08-26T00:51:29.721Z,100364.94
2022-08-26T00:54:03.823Z,100362.15
2022-08-26T00:56:41.763Z,100363.44
2022-08-26T00:59:15.781Z,100363.01
2022-08-26T01:01:50.006Z,100367.66
2022-08-26T01:04:24.144Z,100360.05
2022-08-26T01:06:58.206Z,100360.50
2022-08-26T01:09:30.668Z,100359.97
2022-08-26T01:12:04.094Z,100348.67
2022-08-26T01:14:38.161Z,100353.50
2022-08-26T01:17:11.999Z,100353.50
2022-08-26T01:19:47.120Z,100354.92
2022-08-26T01:22:26.633Z,100351.84
2022-08-26T01:25:03.554Z,100352.13
2022-08-26T01:27:37.001Z,100356.94
2022-08-26T01:30:11.490Z,100349.87
2022-08-26T01:32:45.126Z,100352.72
2022-08-26T01:35:18.105Z,100353.00
2022-08-26T01:37:54.744Z,100355.68
2022-08-26T01:40:31.496Z,100357.95
2022-08-26T01:43:05.934Z,100357.78
2022-08-26T01:45:39.508Z,100359.36
2022-08-26T01:48:15.017Z,100362.24
2022-08-26T01:50:49.311Z,100356.95
2022-08-26T01:53:24.546Z,100352.02
2022-08-26T01:56:00.296Z,100353.88
2022-08-26T01:58:39.259Z,100358.23
2022-08-26T02:01:14.800Z,100360.91
2022-08-26T02:04:08.785Z,100359.78
2022-08-26T02:06:42.030Z,100358.78
2022-08-26T02:09:16.127Z,100354.28
2022-08-26T02:11:51.196Z,100356.23
2022-08-26T02:14:30.006Z,100357.09
2022-08-26T02:17:04.105Z,100360.91
2022-08-26T02:19:44.016Z,100363.73
2022-08-26T02:22:19.778Z,100368.09
2022-08-26T02:24:58.679Z,100369.63
2022-08-26T02:27:35.217Z,100365.98
2022-08-26T02:30:14.042Z,100369.35
2022-08-26T02:32:47.179Z,100366.53
2022-08-26T02:35:24.580Z,100358.36
2022-08-26T02:37:57.612Z,100360.32
2022-08-26T02:40:33.939Z,100362.72
2022-08-26T02:43:09.938Z,100358.91
2022-08-26T02:45:43.686Z,100366.80
2022-08-26T02:48:19.340Z,100360.30
2022-08-26T02:50:52.569Z,100359.88
2022-08-26T02:53:25.744Z,100361.42
2022-08-26T02:55:58.716Z,100361.95
2022-08-26T02:58:32.775Z,100364.22
2022-08-26T03:01:05.885Z,100363.75
2022-08-26T03:03:39.388Z,100367.83
2022-08-26T03:06:12.240Z,100365.58
2022-08-26T03:08:45.401Z,100366.66
2022-08-26T03:11:18.916Z,100367.12
2022-08-26T03:13:52.058Z,100369.19
2022-08-26T03:16:25.248Z,100362.11
2022-08-26T03:19:00.891Z,100368.39
2022-08-26T03:21:34.126Z,100347.33
2022-08-26T03:24:10.105Z,100347.33
2022-08-26T03:26:52.400Z,100368.53
2022-08-26T03:29:34.289Z,100366.48
2022-08-26T03:32:06.436Z,100369.98
2022-08-26T03:34:38.766Z,100365.23
2022-08-26T03:37:11.072Z,100371.53
2022-08-26T03:39:43.221Z,100373.14
2022-08-26T03:42:16.079Z,100367.99
2022-08-26T03:44:48.458Z,100369.44
2022-08-26T03:47:20.792Z,100370.33
2022-08-26T03:49:53.251Z,100364.02
2022-08-26T03:52:25.712Z,100372.72
2022-08-26T03:54:57.879Z,100371.77
2022-08-26T03:57:31.366Z,100367.77
2022-08-26T04:00:05.857Z,100374.35
2022-08-26T04:02:40.143Z,100375.72
2022-08-26T04:05:14.148Z,100367.81
2022-08-26T04:07:46.695Z,100370.66
2022-08-26T04:10:29.192Z,100373.34
2022-08-26T04:13:01.419Z,100376.03
2022-08-26T04:15:34.090Z,100384.95
2022-08-26T04:18:06.946Z,100375.87
2022-08-26T04:20:39.268Z,100372.88
2022-08-26T04:23:11.747Z,100375.07
2022-08-26T04:25:44.032Z,100371.38
2022-08-26T04:28:16.564Z,100381.66
2022-08-26T04:33:19.529Z,100382.06
2022-08-26T04:35:56.355Z,100385.88
2022-08-26T04:38:29.291Z,100381.40
2022-08-26T04:41:01.655Z,100384.70
2022-08-26T04:43:34.187Z,100379.00
2022-08-26T04:46:07.523Z,100378.91
2022-08-26T04:48:41.531Z,100379.27
2022-08-26T04:51:13.684Z,100383.82
2022-08-26T04:53:46.271Z,100381.16
2022-08-26T04:56:18.634Z,100386.37
2022-08-26T04:58:51.013Z,100386.20
2022-08-26T05:01:23.862Z,100388.89
2022-08-26T05:03:56.438Z,100389.05
2022-08-26T05:06:28.968Z,100389.20
2022-08-26T05:09:02.962Z,100394.58
2022-08-26T05:11:35.842Z,100387.49
2022-08-26T05:14:08.426Z,100389.34
2022-08-26T05:16:40.711Z,100394.38
2022-08-26T05:19:13.400Z,100396.03
2022-08-26T05:21:47.917Z,100387.91
2022-08-26T05:24:20.774Z,100394.77
2022-08-26T05:26:53.244Z,100393.54
2022-08-26T05:29:25.452Z,100398.91
2022-08-26T05:31:58.043Z,100392.47
2022-08-26T05:34:30.498Z,100401.85
2022-08-26T05:37:02.968Z,100397.08
2022-08-26T05:39:36.468Z,100397.67
2022-08-26T05:42:08.877Z,100398.09
2022-08-26T05:44:54.081Z,100402.26
2022-08-26T05:47:15.500Z,100398.29
2022-08-26T05:49:51.604Z,100399.93
2022-08-26T05:52:22.193Z,100396.77
2022-08-26T05:54:56.069Z,100395.48
2022-08-26T05:57:30.005Z,100393.55
2022-08-26T06:00:02.492Z,100402.48
2022-08-26T06:02:36.292Z,100400.34
2022-08-26T06:05:09.215Z,100402.23
2022-08-26T06:07:59.304Z,100394.33
2022-08-26T06:10:33.129Z,100391.27
2022-08-26T06:13:11.811Z,100391.62
2022-08-26T06:15:47.142Z,100390.33
2022-08-26T06:18:22.688Z,100394.17
2022-08-26T06:20:57.987Z,100388.50
2022-08-26T06:23:48.916Z,100388.98
2022-08-26T06:26:21.480Z,100386.19
2022-08-26T06:28:55.834Z,100385.97
2022-08-26T06:31:28.430Z,100389.19
2022-08-26T06:34:02.074Z,100378.70
2022-08-26T06:36:35.126Z,100384.95
2022-08-26T06:39:12.534Z,100395.33
2022-08-26T06:41:45.820Z,100389.50
2022-08-26T06:44:20.957Z,100395.21
2022-08-26T06:46:53.650Z,100393.24
2022-08-26T06:49:27.510Z,100392.03
2022-08-26T06:52:00.372Z,100398.25
2022-08-26T06:54:32.804Z,100391.03
2022-08-26T06:57:05.209Z,100395.93
2022-08-26T06:59:39.339Z,100390.24
2022-08-26T07:02:13.562Z,100391.33
2022-08-26T07:04:47.917Z,100389.90
2022-08-26T07:07:21.675Z,100391.95
2022-08-26T07:09:53.001Z,100396.77
2022-08-26T07:12:26.719Z,100390.63
2022-08-26T07:14:59.005Z,100380.52
2022-08-26T07:17:32.788Z,100381.62
2022-08-26T07:20:09.495Z,100388.47
2022-08-26T07:22:42.497Z,100380.44
2022-08-26T07:25:14.793Z,100396.52
2022-08-26T07:27:53.966Z,100392.26
2022-08-26T07:30:22.653Z,100388.27
2022-08-26T07:32:57.401Z,100392.98
2022-08-26T07:35:30.502Z,100392.41
2022-08-26T07:38:02.886Z,100392.13
2022-08-26T07:40:35.834Z,100396.61
2022-08-26T07:43:09.761Z,100387.62
2022-08-26T07:45:42.718Z,100392.25
2022-08-26T07:48:15.037Z,100391.59
2022-08-26T07:50:50.381Z,100389.55
2022-08-26T07:53:22.272Z,100388.90
2022-08-26T07:55:56.318Z,100395.81
2022-08-26T07:58:29.149Z,100383.26
2022-08-26T08:01:02.123Z,100386.42
2022-08-26T08:03:36.129Z,100376.35
2022-08-26T08:06:11.152Z,100379.72
2022-08-26T08:08:43.187Z,100384.31
2022-08-26T08:11:15.903Z,100380.13
2022-08-26T08:13:49.824Z,100374.47
2022-08-26T08:16:24.600Z,100373.63
2022-08-26T08:18:58.470Z,100374.67
2022-08-26T08:21:30.999Z,100375.52
2022-08-26T08:24:02.765Z,100380.73
2022-08-26T08:26:35.636Z,100374.88
2022-08-26T08:29:09.033Z,100377.61
2022-08-26T08:31:58.297Z,100378.47
2022-08-26T08:34:15.666Z,100379.25
2022-08-26T08:36:47.815Z,100375.08
2022-08-26T08:39:20.176Z,100374.47
2022-08-26T08:42:16.756Z,100372.56
2022-08-26T08:44:52.507Z,100364.39
2022-08-26T08:47:33.923Z,100367.38
2022-08-26T08:50:15.010Z,100366.30
2022-08-26T08:52:49.418Z,100371.09
2022-08-26T08:55:21.414Z,100366.09
2022-08-26T08:58:02.466Z,100375.47
2022-08-26T09:00:49.301Z,100360.44
2022-08-26T09:03:45.303Z,100358.96
2022-08-26T09:06:18.943Z,100363.95
2022-08-26T09:08:52.748Z,100360.82
2022-08-26T09:11:25.173Z,100358.73
2022-08-26T09:13:57.851Z,100350.55
2022-08-26T09:16:38.414Z,100364.54
2022-08-26T09:19:23.126Z,100369.13
2022-08-26T09:22:04.647Z,100354.27
2022-08-26T09:24:41.698Z,100351.48
2022-08-26T09:27:11.701Z,100345.16
2022-08-26T09:29:45.871Z,100342.43
2022-08-26T09:32:27.135Z,100352.23
2022-08-26T09:35:02.933Z,100354.06
2022-08-26T09:37:41.128Z,100350.91
2022-08-26T09:40:23.450Z,100347.93
2022-08-26T09:43:22.909Z,100346.66
2022-08-26T09:45:59.568Z,100338.09
2022-08-26T09:48:36.052Z,100356.36
2022-08-26T09:51:10.526Z,100342.59
2022-08-26T09:53:54.736Z,100341.75
2022-08-26T09:56:33.759Z,100343.84
2022-08-26T09:59:08.104Z,100340.86
2022-08-26T10:01:44.995Z,100340.18
2022-08-26T10:04:23.602Z,100342.05
2022-08-26T10:07:04.671Z,100345.59
2022-08-26T10:09:44.919Z,100342.69
2022-08-26T10:12:21.501Z,100341.03
2022-08-26T10:14:59.182Z,100335.75
2022-08-26T10:17:37.220Z,100333.98
2022-08-26T10:20:23.097Z,100334.78
2022-08-26T10:23:11.177Z,100329.50
2022-08-26T10:25:54.322Z,100326.97
2022-08-26T10:28:46.805Z,100327.75
2022-08-26T10:31:30.527Z,100323.31
2022-08-26T10:34:07.126Z,100312.11
2022-08-26T10:37:13.744Z,100314.63
2022-08-26T10:39:29.127Z,100316.66
2022-08-26T10:42:05.675Z,100321.24
2022-08-26T10:44:43.827Z,100312.08
2022-08-26T10:47:22.736Z,100307.68
2022-08-26T10:50:02.994Z,100302.08
2022-08-26T10:52:50.619Z,100304.86
2022-08-26T10:55:35.754Z,100297.38
2022-08-26T10:58:26.109Z,100290.78
2022-08-26T11:01:24.474Z,100299.36
2022-08-26T11:04:19.625Z,100297.70
2022-08-26T11:07:31.696Z,100285.44
2022-08-26T11:10:14.167Z,100291.87
2022-08-26T11:12:53.659Z,100273.61
2022-08-26T11:15:29.643Z,100281.32
2022-08-26T11:18:08.021Z,100284.17
2022-08-26T11:20:45.201Z,100282.75
2022-08-26T11:23:27.742Z,100278.47
2022-08-26T11:26:12.363Z,100275.50
2022-08-26T11:28:51.442Z,100273.95
2022-08-26T11:31:31.766Z,100276.03
2022-08-26T11:34:07.244Z,100281.52
2022-08-26T11:36:45.585Z,100272.06
2022-08-26T11:39:28.938Z,100283.31
2022-08-26T11:42:04.937Z,100283.40
2022-08-26T11:44:49.682Z,100273.70
2022-08-26T11:47:19.998Z,100280.80
2022-08-26T11:50:14.093Z,100272.27
2022-08-26T11:53:07.650Z,100275.47
2022-08-26T11:55:43.634Z,100273.50
2022-08-26T11:58:17.186Z,100265.06
2022-08-26T12:01:00.269Z,100261.70
2022-08-26T12:03:48.004Z,100256.52
2022-08-26T12:09:02.699Z,100253.95
2022-08-26T12:11:39.266Z,100243.08
2022-08-26T12:14:25.096Z,100244.92
2022-08-26T12:17:03.338Z,100247.03
2022-08-26T12:19:36.539Z,100243.30
2022-08-26T12:22:30.755Z,100245.39
2022-08-26T12:25:06.767Z,100236.91
2022-08-26T12:27:45.329Z,100226.20
2022-08-26T12:30:26.585Z,100227.48
2022-08-26T12:33:21.960Z,100243.12
2022-08-26T12:35:43.876Z,100233.00
2022-08-26T12:38:16.992Z,100238.66
2022-08-26T12:40:50.671Z,100222.59
2022-08-26T12:43:39.691Z,100223.59
2022-08-26T12:46:21.107Z,100230.80
2022-08-26T12:48:53.992Z,100220.40
2022-08-26T12:51:30.649Z,100228.59
2022-08-26T12:54:05.849Z,100221.56
2022-08-26T12:56:40.680Z,100216.48
2022-08-26T12:59:23.178Z,100220.86
2022-08-26T13:01:56.754Z,100220.52
2022-08-26T13:04:38.633Z,100217.39
2022-08-26T13:07:17.090Z,100212.05
2022-08-26T13:09:51.055Z,100213.25
2022-08-26T13:12:41.322Z,100210.72
2022-08-26T13:15:14.531Z,100202.04
2022-08-26T13:17:47.312Z,100206.37
2022-08-26T13:20:20.694Z,100185.55
2022-08-26T13:22:58.836Z,100204.03
2022-08-26T13:25:28.248Z,100192.66
2022-08-26T13:28:01.002Z,100186.13
2022-08-26T13:30:33.635Z,100194.91
2022-08-26T13:33:09.075Z,100192.58
2022-08-26T13:35:43.625Z,100189.45
2022-08-26T13:38:22.315Z,100187.48
2022-08-26T13:40:50.982Z,100182.80
2022-08-26T13:43:24.366Z,100181.97
2022-08-26T13:45:57.073Z,100180.22
2022-08-26T13:48:29.944Z,100168.77
2022-08-26T13:51:03.290Z,100171.69
2022-08-26T13:53:37.887Z,100172.31
2022-08-26T13:56:12.498Z,100168.99
2022-08-26T13:58:45.335Z,100177.44
2022-08-26T14:01:19.974Z,100172.78
2022-08-26T14:03:53.011Z,100162.21
2022-08-26T14:06:26.100Z,100164.12
2022-08-26T14:08:58.886Z,100162.42
2022-08-26T14:11:41.245Z,100171.33
2022-08-26T14:14:06.397Z,100165.94
2022-08-26T14:16:58.839Z,100159.27
2022-08-26T14:19:15.393Z,100155.30
2022-08-26T14:21:48.409Z,100160.44
2022-08-26T14:24:22.158Z,100165.20
2022-08-26T14:26:54.845Z,100159.21
2022-08-26T14:29:27.814Z,100161.55
2022-08-26T14:32:03.618Z,100159.66
2022-08-26T14:34:36.686Z,100155.37
2022-08-26T14:37:13.544Z,100158.26
2022-08-26T14:39:44.980Z,100164.31
2022-08-26T14:42:20.883Z,100169.55
2022-08-26T14:44:57.747Z,100162.64
2022-08-26T14:47:31.064Z,100170.59
2022-08-26T14:50:04.545Z,100171.64
2022-08-26T14:52:38.769Z,100173.91
2022-08-26T14:55:12.059Z,100166.21
2022-08-26T14:57:44.861Z,100167.65
2022-08-26T15:00:18.672Z,100165.58
2022-08-26T15:02:51.600Z,100168.90
2022-08-26T15:05:24.735Z,100179.07
2022-08-26T15:07:57.683Z,100174.81
2022-08-26T15:10:30.486Z,100176.34
2022-08-26T15:13:03.779Z,100177.45
2022-08-26T15:15:37.776Z,100174.62
2022-08-26T15:18:11.009Z,100182.77
2022-08-26T15:20:44.627Z,100184.41
2022-08-26T15:23:17.833Z,100176.72
2022-08-26T15:25:51.241Z,100180.52
2022-08-26T15:28:24.517Z,100182.81
2022-08-26T15:30:57.706Z,100186.52
2022-08-26T15:33:30.565Z,100180.34
2022-08-26T15:36:04.783Z,100186.53
2022-08-26T15:38:41.417Z,100188.12
2022-08-26T15:41:14.431Z,100189.41
2022-08-26T15:43:47.284Z,100193.27
2022-08-26T15:46:21.002Z,100190.17
2022-08-26T15:48:54.134Z,100193.98
2022-08-26T15:51:45.684Z,100196.34
2022-08-26T15:54:11.497Z,100196.35
2022-08-26T15:56:44.477Z,100188.23
2022-08-26T15:59:17.531Z,100199.30
2022-08-26T16:01:50.335Z,100198.27
2022-08-26T16:04:23.092Z,100198.47
2022-08-26T16:06:56.141Z,100199.09
2022-08-26T16:09:30.286Z,100196.98
2022-08-26T16:12:03.185Z,100203.42
2022-08-26T16:14:36.670Z,100203.39
2022-08-26T16:17:09.452Z,100207.55
2022-08-26T16:19:42.593Z,100209.83
2022-08-26T16:22:15.416Z,100212.88
2022-08-26T16:24:48.591Z,100210.11
2022-08-26T16:27:23.054Z,100211.72
2022-08-26T16:29:55.843Z,100206.00
2022-08-26T16:32:31.243Z,100207.44
2022-08-26T16:35:03.394Z,100208.61
2022-08-26T16:37:37.768Z,100213.95
2022-08-26T16:40:11.947Z,100207.64
2022-08-26T16:42:45.105Z,100210.51
2022-08-26T16:45:18.538Z,100211.45
2022-08-26T16:47:52.240Z,100206.95
2022-08-26T16:50:25.669Z,100206.44
2022-08-26T16:52:58.488Z,100214.69
2022-08-26T16:55:31.681Z,100213.53
2022-08-26T16:58:05.044Z,100214.58
2022-08-26T17:00:38.018Z,100216.37
2022-08-26T17:03:11.332Z,100222.20
2022-08-26T17:05:44.644Z,100219.58
2022-08-26T17:08:21.844Z,100224.34
2022-08-26T17:10:54.884Z,100220.70
2022-08-26T17:13:35.439Z,100224.45
2022-08-26T17:16:04.271Z,100224.38
2022-08-26T17:18:37.294Z,100227.80
2022-08-26T17:21:11.777Z,100226.69
2022-08-26T17:23:45.238Z,100232.66
2022-08-26T17:26:17.749Z,100223.23
2022-08-26T17:28:50.684Z,100225.68
2022-08-26T17:31:23.865Z,100226.05
2022-08-26T17:33:56.134Z,100224.38
2022-08-26T17:36:28.584Z,100224.38
2022-08-26T17:39:01.277Z,100221.00
2022-08-26T17:41:35.502Z,100216.45
2022-08-26T17:44:08.418Z,100219.82
2022-08-26T17:46:41.764Z,100226.05
2022-08-26T17:49:13.608Z,100228.28
2022-08-26T17:51:45.767Z,100219.23
2022-08-26T17:54:18.051Z,100217.38
2022-08-26T17:56:50.123Z,100224.83
2022-08-26T17:59:22.361Z,100220.91
2022-08-26T18:01:55.639Z,100222.97
2022-08-26T18:04:28.007Z,100215.23
2022-08-26T18:07:00.108Z,100219.60
2022-08-26T18:09:33.416Z,100220.64
2022-08-26T18:12:06.551Z,100219.34
2022-08-26T18:14:39.454Z,100215.97
2022-08-26T18:17:11.558Z,100215.30
2022-08-26T18:19:45.464Z,100217.92
2022-08-26T18:22:17.586Z,100222.88
2022-08-26T18:24:52.822Z,100214.68
2022-08-26T18:27:23.902Z,100219.33
2022-08-26T18:29:56.521Z,100215.33
2022-08-26T18:32:28.686Z,100218.88
2022-08-26T18:35:00.771Z,100213.07
2022-08-26T18:37:34.184Z,100218.73
2022-08-26T18:40:08.355Z,100222.06
2022-08-26T18:42:41.528Z,100228.08
2022-08-26T18:45:16.411Z,100228.99
2022-08-26T18:47:49.534Z,100234.64
2022-08-26T18:50:22.438Z,100236.05
2022-08-26T18:52:54.767Z,100239.31
2022-08-26T18:55:27.563Z,100242.89
2022-08-26T18:57:59.764Z,100248.49
2022-08-26T19:00:31.880Z,100249.02
2022-08-26T19:03:04.547Z,100243.50
2022-08-26T19:05:40.159Z,100240.67
2022-08-26T19:08:12.667Z,100245.95
2022-08-26T19:10:45.086Z,100245.44
2022-08-26T19:13:17.212Z,100252.41
2022-08-26T19:15:49.667Z,100256.95
2022-08-26T19:18:21.808Z,100258.33
2022-08-26T19:20:53.883Z,100258.33
2022-08-26T19:23:32.088Z,100258.63
2022-08-26T19:26:04.519Z,100258.33
2022-08-26T19:28:37.454Z,100261.67
2022-08-26T19:31:12.729Z,100251.56
2022-08-26T19:33:45.929Z,100259.78
2022-08-26T19:36:21.899Z,100263.13
2022-08-26T19:38:56.134Z,100270.41
2022-08-26T19:41:37.497Z,100268.77
2022-08-26T19:44:07.692Z,100276.19
2022-08-26T19:46:41.902Z,100283.84
2022-08-26T19:49:14.079Z,100274.41
2022-08-26T19:51:46.175Z,100281.51
2022-08-26T19:54:18.719Z,100284.75
2022-08-26T19:56:50.753Z,100281.39
2022-08-26T19:59:22.989Z,100278.72
2022-08-26T20:02:01.294Z,100278.73
2022-08-26T20:04:28.924Z,100280.95
2022-08-26T20:07:02.773Z,100280.95
2022-08-26T20:09:36.872Z,100286.00
2022-08-26T20:12:09.449Z,100288.86
2022-08-26T20:14:41.624Z,100290.54
2022-08-26T20:17:14.445Z,100294.59
2022-08-26T20:20:04.515Z,100295.26
2022-08-26T20:22:37.492Z,100297.59
2022-08-26T20:25:10.168Z,100297.61
2022-08-26T20:27:44.058Z,100300.66
2022-08-26T20:30:17.066Z,100297.61
2022-08-26T20:32:49.605Z,100299.81
2022-08-26T20:35:21.730Z,100295.13
2022-08-26T20:37:53.980Z,100294.95
2022-08-26T20:40:26.552Z,100294.95
2022-08-26T20:42:58.937Z,100297.98
2022-08-26T20:45:31.339Z,100297.65
2022-08-26T20:48:03.980Z,100299.98
2022-08-26T20:50:36.393Z,100296.79
2022-08-26T20:53:09.266Z,100297.47
2022-08-26T20:55:42.145Z,100293.89
2022-08-26T20:58:14.470Z,100296.23
2022-08-26T21:00:46.705Z,100302.45
2022-08-26T21:03:18.868Z,100300.59
2022-08-26T21:05:52.387Z,100308.01
2022-08-26T21:08:24.417Z,100305.98
2022-08-26T21:10:57.342Z,100307.01
2022-08-26T21:13:42.942Z,100301.29
2022-08-26T21:16:03.769Z,100308.83
2022-08-26T21:18:36.885Z,100317.42
2022-08-26T21:21:10.571Z,100311.50
2022-08-26T21:23:42.720Z,100316.22
2022-08-26T21:26:16.846Z,100305.63
2022-08-26T21:28:49.165Z,100302.05
2022-08-26T21:31:23.988Z,100301.87
2022-08-26T21:33:57.074Z,100310.92
2022-08-26T21:36:29.600Z,100312.57
2022-08-26T21:39:02.250Z,100311.25
2022-08-26T21:41:34.456Z,100308.39
2022-08-26T21:44:06.760Z,100302.55
2022-08-26T21:46:39.027Z,100303.23
2022-08-26T21:49:13.832Z,100308.79
2022-08-26T21:51:48.457Z,100312.20
2022-08-26T21:54:20.469Z,100312.38
2022-08-26T21:56:54.198Z,100305.66
2022-08-26T21:59:26.518Z,100311.70
2022-08-26T22:01:59.353Z,100304.96
2022-08-26T22:04:31.482Z,100318.23
2022-08-26T22:07:04.380Z,100312.36
2022-08-26T22:09:36.690Z,100316.86
2022-08-26T22:12:12.480Z,100317.38
2022-08-26T22:14:45.834Z,100322.89
2022-08-26T22:17:17.915Z,100319.13
2022-08-26T22:19:50.103Z,100318.04
2022-08-26T22:22:23.092Z,100316.64
2022-08-26T22:24:55.225Z,100315.58
2022-08-26T22:27:27.538Z,100314.02
2022-08-26T22:29:59.601Z,100318.02
2022-08-26T22:32:34.633Z,100317.97
2022-08-26T22:35:11.402Z,100315.75
2022-08-26T22:37:41.367Z,100319.91
2022-08-26T22:40:15.251Z,100310.63
2022-08-26T22:42:55.591Z,100321.83
2022-08-26T22:45:21.180Z,100319.14
2022-08-26T22:47:53.476Z,100328.27
2022-08-26T22:50:25.953Z,100317.06
2022-08-26T22:52:58.373Z,100309.91
2022-08-26T22:55:30.904Z,100310.12
2022-08-26T22:58:03.226Z,100311.80
2022-08-26T23:00:35.427Z,100307.12
2022-08-26T23:03:07.854Z,100307.42
2022-08-26T23:05:41.365Z,100301.39
2022-08-26T23:08:14.418Z,100304.02
2022-08-26T23:10:49.573Z,100312.23
2022-08-26T23:13:22.297Z,100308.03
2022-08-26T23:16:06.670Z,100310.77
2022-08-26T23:18:39.423Z,100305.05
2022-08-26T23:21:11.738Z,100306.58
2022-08-26T23:23:45.532Z,100306.77
2022-08-26T23:26:17.923Z,100304.23
2022-08-26T23:28:49.908Z,100319.39
2022-08-26T23:31:22.241Z,100303.23
2022-08-26T23:34:11.910Z,100304.03
2022-08-26T23:36:44.695Z,100309.20
2022-08-26T23:39:18.626Z,100313.95
2022-08-26T23:41:51.220Z,100310.38
2022-08-26T23:44:24.884Z,100312.70
2022-08-26T23:46:57.668Z,100319.83
2022-08-26T23:49:31.037Z,100314.91
2022-08-26T23:52:21.358Z,100317.84
2022-08-26T23:54:54.090Z,100321.95
2022-08-26T23:57:27.252Z,100312.67
2022-08-26T23:59:59.468Z,100317.66
